Wetterdaten: Mittwoch, 01.04.2015
Datum Zeit Temp. A. Feuchte A. Luftdruck Regen Wind Richtung Richtung Sonnenschein ET UV Solar Taupunkt Windchill Windben Empfang
01.04.2015 00:00 6,1 C 59 % 1007,7 hPa 0,0 l/m 2,9 km/h (1 Bft) SW 221 0 min 0,000 mm 0,0 UV-I 0 W/m -1,3 C 6,1 C 7,9 km/h (2 Bft) 0,00 %
01.04.2015 00:15 6,0 C 62 % 1007,7 hPa 0,0 l/m 2,2 km/h (1 Bft) W-SW 256 0 min 0,000 mm 0,0 UV-I 0 W/m -0,7 C 6,0 C 4,0 km/h (1 Bft) 0,00 %
01.04.2015 00:30 5,8 C 65 % 1007,8 hPa 0,0 l/m 11,9 km/h (2 Bft) N-NO 32 0 min 0,000 mm 0,0 UV-I 0 W/m -0,3 C 1,7 C 19,8 km/h (3 Bft) 0,00 %
01.04.2015 00:45 5,9 C 65 % 1007,5 hPa 0,0 l/m 15,5 km/h (3 Bft) W-SW 252 0 min 0,000 mm 0,0 UV-I 0 W/m -0,2 C -0,1 C 24,1 km/h (4 Bft) 0,00 %
01.04.2015 01:00 5,8 C 64 % 1007,5 hPa 0,0 l/m 3,2 km/h (1 Bft) W-SW 256 0 min 0,000 mm 0,0 UV-I 0 W/m -0,5 C 5,8 C 7,9 km/h (2 Bft) 0,00 %
01.04.2015 01:15 5,7 C 64 % 1007,4 hPa 0,0 l/m 14,8 km/h (3 Bft) S-SW 198 0 min 0,000 mm 0,0 UV-I 0 W/m -0,6 C 0,0 C 19,8 km/h (3 Bft) 0,00 %
01.04.2015 01:30 5,7 C 64 % 1007,3 hPa 0,0 l/m 3,2 km/h (1 Bft) O 95 0 min 0,000 mm 0,0 UV-I 0 W/m -0,6 C 5,7 C 7,9 km/h (2 Bft) 0,00 %
01.04.2015 01:45 5,7 C 64 % 1007,6 hPa 0,0 l/m 13,0 km/h (3 Bft) W-SW 246 0 min 0,000 mm 0,0 UV-I 0 W/m -0,6 C 1,0 C 15,8 km/h (3 Bft) 0,00 %
01.04.2015 02:00 4,2 C 76 % 1008,4 hPa 0,0 l/m 10,4 km/h (2 Bft) N-NW 342 0 min 0,000 mm 0,0 UV-I 0 W/m 0,4 C 0,9 C 15,8 km/h (3 Bft) 0,00 %
01.04.2015 02:15 3,8 C 77 % 1007,8 hPa 0,0 l/m 24,5 km/h (4 Bft) W 270 0 min 0,000 mm 0,0 UV-I 0 W/m 0,1 C -6,4 C 28,1 km/h (4 Bft) 0,00 %
01.04.2015 02:30 3,6 C 79 % 1008,1 hPa 0,0 l/m 19,4 km/h (3 Bft) W-NW 293 0 min 0,000 mm 0,0 UV-I 0 W/m 0,3 C -4,7 C 28,1 km/h (4 Bft) 0,00 %
01.04.2015 02:45 3,2 C 83 % 1008,3 hPa 0,3 l/m 17,3 km/h (3 Bft) W-SW 251 0 min 0,000 mm 0,0 UV-I 0 W/m 0,6 C -4,3 C 24,1 km/h (4 Bft) 0,00 %
01.04.2015 03:00 3,2 C 81 % 1008,5 hPa 0,0 l/m 34,9 km/h (5 Bft) W-SW 251 0 min 0,000 mm 0,0 UV-I 0 W/m 0,3 C -10,1 C 44,3 km/h (6 Bft) 0,00 %
01.04.2015 03:15 3,4 C 83 % 1008,8 hPa 0,0 l/m 18,4 km/h (3 Bft) W-SW 255 0 min 0,000 mm 0,0 UV-I 0 W/m 0,8 C -4,5 C 24,1 km/h (4 Bft) 0,00 %
01.04.2015 03:30 3,3 C 83 % 1009,0 hPa 0,0 l/m 4,3 km/h (1 Bft) W-SW 255 0 min 0,000 mm 0,0 UV-I 0 W/m 0,7 C 3,3 C 7,9 km/h (2 Bft) 0,00 %
01.04.2015 03:45 0,7 C 81 % 1009,9 hPa 0,3 l/m 2,9 km/h (1 Bft) SW 230 0 min 0,000 mm 0,0 UV-I 0 W/m -2,2 C 0,7 C 7,9 km/h (2 Bft) 0,00 %
01.04.2015 04:00 0,8 C 83 % 1010,0 hPa 0,3 l/m 0,4 km/h (0 Bft) SW 228 0 min 0,000 mm 0,0 UV-I 0 W/m -1,8 C 0,8 C 4,0 km/h (1 Bft) 0,00 %
01.04.2015 04:15 1,2 C 84 % 1010,0 hPa 0,3 l/m 14,0 km/h (3 Bft) W-SW 256 0 min 0,000 mm 0,0 UV-I 0 W/m -1,2 C -4,9 C 15,8 km/h (3 Bft) 0,00 %
01.04.2015 04:30 1,7 C 82 % 1010,5 hPa 0,6 l/m 9,0 km/h (2 Bft) N-NO 17 0 min 0,000 mm 0,0 UV-I 0 W/m -1,0 C -0,8 C 19,8 km/h (3 Bft) 0,00 %
01.04.2015 04:45 1,5 C 82 % 1011,0 hPa 0,6 l/m 8,3 km/h (2 Bft) NW 311 0 min 0,000 mm 0,0 UV-I 0 W/m -1,2 C -0,3 C 11,9 km/h (2 Bft) 0,00 %
01.04.2015 05:00 1,2 C 82 % 1010,3 hPa 0,3 l/m 7,2 km/h (2 Bft) S-SW 195 0 min 0,000 mm 0,0 UV-I 0 W/m -1,5 C 0,4 C 15,8 km/h (3 Bft) 0,00 %
01.04.2015 05:15 1,1 C 81 % 1010,4 hPa 0,3 l/m 9,4 km/h (2 Bft) W-NW 299 0 min 0,000 mm 0,0 UV-I 0 W/m -1,8 C -1,7 C 11,9 km/h (2 Bft) 0,00 %
01.04.2015 05:30 1,2 C 80 % 1010,7 hPa 0,0 l/m 4,3 km/h (1 Bft) O 88 0 min 0,000 mm 0,0 UV-I 0 W/m -1,9 C 1,2 C 7,9 km/h (2 Bft) 0,00 %
01.04.2015 05:45 1,2 C 80 % 1010,8 hPa 0,0 l/m 5,4 km/h (1 Bft) W-SW 242 0 min 0,000 mm 0,0 UV-I 0 W/m -1,9 C 1,2 C 7,9 km/h (2 Bft) 0,00 %
01.04.2015 06:00 1,2 C 79 % 1010,9 hPa 0,0 l/m 0,7 km/h (0 Bft) NO 43 0 min 0,000 mm 0,0 UV-I 0 W/m -2,0 C 1,2 C 4,0 km/h (1 Bft) 0,00 %
01.04.2015 06:15 1,3 C 74 % 1010,8 hPa 0,0 l/m 7,9 km/h (2 Bft) O 82 0 min 0,000 mm 0,0 UV-I 0 W/m -2,8 C -0,2 C 11,9 km/h (2 Bft) 0,00 %
01.04.2015 06:30 1,6 C 70 % 1011,1 hPa 0,0 l/m 5,4 km/h (1 Bft) N-NW 330 0 min 0,000 mm 0,0 UV-I 0 W/m -3,3 C 1,6 C 7,9 km/h (2 Bft) 0,00 %
01.04.2015 06:45 1,5 C 70 % 1011,3 hPa 0,0 l/m 9,0 km/h (2 Bft) W 262 0 min 0,000 mm 0,0 UV-I 0 W/m -3,4 C -1,0 C 11,9 km/h (2 Bft) 0,00 %
01.04.2015 07:00 1,5 C 70 % 1011,5 hPa 0,0 l/m 13,3 km/h (3 Bft) S-SW 193 0 min 0,000 mm 0,0 UV-I 0 W/m -3,4 C -4,1 C 19,8 km/h (3 Bft) 0,00 %
01.04.2015 07:15 1,2 C 77 % 1011,9 hPa 0,0 l/m 15,5 km/h (3 Bft) W-SW 242 0 min 0,000 mm 0,0 UV-I 0 W/m -2,4 C -5,8 C 19,8 km/h (3 Bft) 0,00 %
01.04.2015 07:30 0,8 C 80 % 1011,9 hPa 0,0 l/m 0,0 km/h (0 Bft) S-SW 209 0 min 0,000 mm 0,0 UV-I 1 W/m -2,2 C 0,8 C 0,0 km/h (0 Bft) 0,00 %
01.04.2015 07:45 0,8 C 82 % 1011,9 hPa 0,0 l/m 0,4 km/h (0 Bft) S 179 0 min 0,000 mm 0,0 UV-I 7 W/m -1,9 C 0,8 C 4,0 km/h (1 Bft) 0,00 %
01.04.2015 08:00 1,1 C 82 % 1012,2 hPa 0,0 l/m 0,7 km/h (0 Bft) O 93 0 min 0,000 mm 1,0 UV-I 34 W/m -1,6 C 1,1 C 4,0 km/h (1 Bft) 0,00 %
01.04.2015 08:15 1,3 C 80 % 1012,1 hPa 0,0 l/m 6,5 km/h (2 Bft) W-SW 250 0 min 0,000 mm 0,0 UV-I 48 W/m -1,8 C 1,2 C 11,9 km/h (2 Bft) 0,00 %
01.04.2015 08:30 1,4 C 78 % 1012,2 hPa 0,0 l/m 5,8 km/h (2 Bft) W-SW 255 0 min 0,000 mm 0,0 UV-I 49 W/m -2,0 C 1,4 C 7,9 km/h (2 Bft) 0,00 %
01.04.2015 08:45 1,5 C 77 % 1012,5 hPa 0,0 l/m 5,4 km/h (1 Bft) W-SW 253 0 min 0,000 mm 0,0 UV-I 27 W/m -2,1 C 1,5 C 11,9 km/h (2 Bft) 0,00 %
01.04.2015 09:00 1,7 C 76 % 1012,4 hPa 0,0 l/m 0,0 km/h (0 Bft) S-SW 210 0 min 0,000 mm 1,0 UV-I 59 W/m -2,1 C 1,7 C 0,0 km/h (0 Bft) 0,00 %
01.04.2015 09:15 2,1 C 73 % 1012,6 hPa 0,0 l/m 1,4 km/h (1 Bft) S 188 0 min 0,000 mm 1,0 UV-I 117 W/m -2,2 C 2,1 C 4,0 km/h (1 Bft) 0,00 %
01.04.2015 09:30 2,5 C 74 % 1012,7 hPa 0,0 l/m 14,4 km/h (3 Bft) W 277 0 min 0,000 mm 1,0 UV-I 107 W/m -1,7 C -3,6 C 19,8 km/h (3 Bft) 0,00 %
01.04.2015 09:45 2,6 C 72 % 1012,9 hPa 0,0 l/m 13,0 km/h (3 Bft) W 260 0 min 0,000 mm 0,0 UV-I 80 W/m -1,9 C -2,7 C 15,8 km/h (3 Bft) 0,00 %
01.04.2015 10:00 1,9 C 72 % 1013,4 hPa 0,0 l/m 3,2 km/h (1 Bft) S 174 0 min 0,000 mm 1,0 UV-I 91 W/m -2,6 C 1,9 C 7,9 km/h (2 Bft) 0,00 %
01.04.2015 10:15 1,9 C 72 % 1013,6 hPa 0,3 l/m 9,0 km/h (2 Bft) O-NO 74 0 min 0,000 mm 2,0 UV-I 147 W/m -2,6 C -0,5 C 15,8 km/h (3 Bft) 0,00 %
01.04.2015 10:30 2,4 C 75 % 1013,3 hPa 0,0 l/m 2,2 km/h (1 Bft) NW 308 0 min 0,000 mm 2,0 UV-I 302 W/m -1,6 C 2,4 C 4,0 km/h (1 Bft) 0,00 %
01.04.2015 10:45 3,8 C 71 % 1012,9 hPa 0,0 l/m 15,8 km/h (3 Bft) S-SW 202 0 min 0,000 mm 4,0 UV-I 322 W/m -1,0 C -2,8 C 24,1 km/h (4 Bft) 0,00 %
01.04.2015 11:00 3,4 C 69 % 1014,0 hPa 0,0 l/m 2,9 km/h (1 Bft) S 184 0 min 0,000 mm 1,0 UV-I 52 W/m -1,7 C 3,4 C 7,9 km/h (2 Bft) 0,00 %
01.04.2015 11:15 2,9 C 73 % 1014,1 hPa 0,0 l/m 15,8 km/h (3 Bft) SW 231 0 min 0,000 mm 0,0 UV-I 56 W/m -1,5 C -3,9 C 19,8 km/h (3 Bft) 0,00 %
01.04.2015 11:30 1,7 C 77 % 1014,5 hPa 0,0 l/m 2,2 km/h (1 Bft) W-SW 258 0 min 0,000 mm 1,0 UV-I 39 W/m -1,9 C 1,7 C 4,0 km/h (1 Bft) 0,00 %
01.04.2015 11:45 1,7 C 70 % 1014,3 hPa 0,0 l/m 6,5 km/h (2 Bft) S 178 0 min 0,000 mm 4,0 UV-I 183 W/m -3,2 C 1,6 C 11,9 km/h (2 Bft) 0,00 %
01.04.2015 12:00 2,7 C 72 % 1014,4 hPa 0,0 l/m 5,4 km/h (1 Bft) W-SW 255 0 min 0,000 mm 2,0 UV-I 212 W/m -1,8 C 2,7 C 7,9 km/h (2 Bft) 0,00 %
01.04.2015 12:15 3,6 C 67 % 1014,2 hPa 0,0 l/m 15,5 km/h (3 Bft) W-SW 256 0 min 0,000 mm 3,0 UV-I 300 W/m -1,9 C -2,9 C 28,1 km/h (4 Bft) 0,00 %
01.04.2015 12:30 4,7 C 63 % 1014,0 hPa 0,0 l/m 14,4 km/h (3 Bft) SW 232 15 min 0,000 mm 3,0 UV-I 428 W/m -1,7 C -1,0 C 28,1 km/h (4 Bft) 0,00 %
01.04.2015 12:45 3,9 C 73 % 1014,5 hPa 0,0 l/m 6,8 km/h (2 Bft) W 277 0 min 0,000 mm 3,0 UV-I 307 W/m -0,5 C 3,5 C 11,9 km/h (2 Bft) 0,00 %
01.04.2015 13:00 2,6 C 74 % 1014,8 hPa 0,0 l/m 5,8 km/h (2 Bft) N-NW 342 0 min 0,000 mm 2,0 UV-I 77 W/m -1,6 C 2,6 C 11,9 km/h (2 Bft) 0,00 %
01.04.2015 13:15 2,5 C 78 % 1015,1 hPa 0,0 l/m 13,3 km/h (3 Bft) W-SW 251 0 min 0,000 mm 4,0 UV-I 206 W/m -0,9 C -3,0 C 15,8 km/h (3 Bft) 0,00 %
01.04.2015 13:30 3,2 C 79 % 1014,8 hPa 0,0 l/m 4,7 km/h (1 Bft) N-NW 338 0 min 0,000 mm 2,0 UV-I 348 W/m -0,1 C 3,2 C 7,9 km/h (2 Bft) 0,00 %
01.04.2015 13:45 3,7 C 72 % 1014,4 hPa 0,0 l/m 5,8 km/h (2 Bft) W-SW 251 0 min 0,000 mm 1,0 UV-I 173 W/m -0,9 C 3,7 C 7,9 km/h (2 Bft) 0,00 %
01.04.2015 14:00 3,5 C 72 % 1014,6 hPa 0,0 l/m 16,6 km/h (3 Bft) W-SW 252 0 min 0,000 mm 0,0 UV-I 27 W/m -1,1 C -3,6 C 24,1 km/h (4 Bft) 0,00 %
01.04.2015 14:15 1,8 C 77 % 1015,7 hPa 0,0 l/m 4,3 km/h (1 Bft) S-SW 205 0 min 0,000 mm 0,0 UV-I 11 W/m -1,8 C 1,8 C 7,9 km/h (2 Bft) 0,00 %
01.04.2015 14:30 1,8 C 85 % 1015,0 hPa 0,3 l/m 5,4 km/h (1 Bft) SW 226 0 min 0,000 mm 2,0 UV-I 288 W/m -0,4 C 1,8 C 7,9 km/h (2 Bft) 0,00 %
01.04.2015 14:45 3,3 C 76 % 1015,2 hPa 0,0 l/m 19,1 km/h (3 Bft) W-SW 256 0 min 0,000 mm 1,0 UV-I 170 W/m -0,5 C -5,0 C 28,1 km/h (4 Bft) 0,00 %
01.04.2015 15:00 1,6 C 77 % 1015,4 hPa 0,0 l/m 5,4 km/h (1 Bft) W-SW 250 0 min 0,000 mm 1,0 UV-I 45 W/m -2,0 C 1,6 C 7,9 km/h (2 Bft) 0,00 %
01.04.2015 15:15 2,8 C 78 % 1014,8 hPa 0,0 l/m 9,7 km/h (2 Bft) NW 304 0 min 0,000 mm 2,0 UV-I 148 W/m -0,6 C -0,1 C 15,8 km/h (3 Bft) 0,00 %
01.04.2015 15:30 4,4 C 72 % 1014,2 hPa 0,0 l/m 4,0 km/h (1 Bft) SW 216 0 min 0,000 mm 2,0 UV-I 257 W/m -0,2 C 4,4 C 7,9 km/h (2 Bft) 0,00 %
01.04.2015 15:45 4,6 C 70 % 1014,2 hPa 0,0 l/m 13,3 km/h (3 Bft) W-SW 251 0 min 0,000 mm 1,0 UV-I 146 W/m -0,4 C -0,5 C 19,8 km/h (3 Bft) 0,00 %
01.04.2015 16:00 4,9 C 64 % 1013,8 hPa 0,0 l/m 9,7 km/h (2 Bft) W-SW 255 0 min 0,000 mm 1,0 UV-I 193 W/m -1,3 C 2,2 C 11,9 km/h (2 Bft) 0,00 %
01.04.2015 16:15 4,2 C 68 % 1014,4 hPa 0,0 l/m 5,8 km/h (2 Bft) W-SW 254 0 min 0,000 mm 1,0 UV-I 18 W/m -1,2 C 4,2 C 7,9 km/h (2 Bft) 0,00 %
01.04.2015 16:30 4,8 C 65 % 1013,8 hPa 0,0 l/m 4,3 km/h (1 Bft) W-SW 251 0 min 0,000 mm 2,0 UV-I 157 W/m -1,2 C 4,8 C 7,9 km/h (2 Bft) 0,00 %
01.04.2015 16:45 6,1 C 51 % 1013,9 hPa 0,0 l/m 1,4 km/h (1 Bft) NO 45 0 min 0,000 mm 1,0 UV-I 105 W/m -3,3 C 6,1 C 4,0 km/h (1 Bft) 0,00 %
01.04.2015 17:00 5,9 C 49 % 1014,1 hPa 0,0 l/m 5,4 km/h (1 Bft) S 178 15 min 0,000 mm 2,0 UV-I 384 W/m -4,0 C 5,9 C 7,9 km/h (2 Bft) 0,00 %
01.04.2015 17:15 6,5 C 47 % 1014,1 hPa 0,0 l/m 21,6 km/h (4 Bft) W-SW 256 0 min 0,000 mm 1,0 UV-I 142 W/m -4,0 C -1,8 C 24,1 km/h (4 Bft) 0,00 %
01.04.2015 17:30 6,6 C 46 % 1014,1 hPa 0,0 l/m 19,8 km/h (3 Bft) W-SW 251 15 min 0,000 mm 1,0 UV-I 610 W/m -4,2 C -1,0 C 32,0 km/h (5 Bft) 0,00 %
01.04.2015 17:45 6,1 C 50 % 1014,3 hPa 0,0 l/m 4,3 km/h (1 Bft) S 181 15 min 0,000 mm 1,0 UV-I 214 W/m -3,5 C 6,1 C 7,9 km/h (2 Bft) 0,00 %
01.04.2015 18:00 6,4 C 44 % 1014,5 hPa 0,0 l/m 10,8 km/h (2 Bft) W-SW 255 15 min 0,000 mm 1,0 UV-I 496 W/m -4,9 C 3,1 C 15,8 km/h (3 Bft) 0,00 %
01.04.2015 18:15 6,1 C 44 % 1014,8 hPa 0,0 l/m 15,8 km/h (3 Bft) W 279 15 min 0,000 mm 1,0 UV-I 173 W/m -5,2 C 0,0 C 24,1 km/h (4 Bft) 0,00 %
01.04.2015 18:30 5,4 C 49 % 1015,2 hPa 0,0 l/m 5,4 km/h (1 Bft) SW 218 0 min 0,000 mm 0,0 UV-I 52 W/m -4,4 C 5,4 C 7,9 km/h (2 Bft) 0,00 %
01.04.2015 18:45 4,5 C 61 % 1015,8 hPa 0,0 l/m 11,9 km/h (2 Bft) W-NW 290 0 min 0,000 mm 0,0 UV-I 5 W/m -2,4 C 0,2 C 15,8 km/h (3 Bft) 0,00 %
01.04.2015 19:00 3,5 C 63 % 1015,8 hPa 0,0 l/m 2,2 km/h (1 Bft) NW 322 15 min 0,000 mm 0,0 UV-I 158 W/m -2,9 C 3,5 C 7,9 km/h (2 Bft) 0,00 %
01.04.2015 19:15 3,4 C 65 % 1015,9 hPa 0,0 l/m 0,0 km/h (0 Bft) S-SW 196 0 min 0,000 mm 0,0 UV-I 16 W/m -2,5 C 3,4 C 0,0 km/h (0 Bft) 0,00 %
01.04.2015 19:30 2,8 C 67 % 1016,1 hPa 0,0 l/m 0,0 km/h (0 Bft) SW 218 0 min 0,000 mm 0,0 UV-I 1 W/m -2,7 C 2,8 C 0,0 km/h (0 Bft) 0,00 %
01.04.2015 19:45 2,1 C 67 % 1016,4 hPa 0,0 l/m 0,7 km/h (0 Bft) W-SW 242 0 min 0,000 mm 0,0 UV-I 0 W/m -3,4 C 2,1 C 4,0 km/h (1 Bft) 0,00 %
01.04.2015 20:00 2,4 C 70 % 1016,3 hPa 0,0 l/m 2,9 km/h (1 Bft) W-SW 252 0 min 0,000 mm 0,0 UV-I 0 W/m -2,5 C 2,4 C 4,0 km/h (1 Bft) 0,00 %
01.04.2015 20:15 3,0 C 64 % 1016,2 hPa 0,0 l/m 1,4 km/h (1 Bft) W-SW 250 0 min 0,000 mm 0,0 UV-I 0 W/m -3,1 C 3,0 C 4,0 km/h (1 Bft) 0,00 %
01.04.2015 20:30 3,5 C 66 % 1017,1 hPa 0,0 l/m 9,4 km/h (2 Bft) W 271 0 min 0,000 mm 0,0 UV-I 0 W/m -2,2 C 0,9 C 15,8 km/h (3 Bft) 0,00 %
01.04.2015 20:45 2,5 C 69 % 1017,0 hPa 0,0 l/m 1,4 km/h (1 Bft) N 357 0 min 0,000 mm 0,0 UV-I 0 W/m -2,6 C 2,5 C 4,0 km/h (1 Bft) 0,00 %
01.04.2015 21:00 2,5 C 71 % 1017,0 hPa 0,0 l/m 2,9 km/h (1 Bft) W-SW 252 0 min 0,000 mm 0,0 UV-I 0 W/m -2,2 C 2,5 C 4,0 km/h (1 Bft) 0,00 %
01.04.2015 21:15 2,7 C 67 % 1016,8 hPa 0,0 l/m 4,7 km/h (1 Bft) W-SW 251 0 min 0,000 mm 0,0 UV-I 0 W/m -2,8 C 2,7 C 7,9 km/h (2 Bft) 0,00 %
01.04.2015 21:30 2,3 C 73 % 1018,0 hPa 0,0 l/m 4,7 km/h (1 Bft) W-NW 285 0 min 0,000 mm 0,0 UV-I 0 W/m -2,0 C 2,3 C 7,9 km/h (2 Bft) 0,00 %
01.04.2015 21:45 0,5 C 81 % 1018,4 hPa 0,0 l/m 9,4 km/h (2 Bft) S 188 0 min 0,000 mm 0,0 UV-I 0 W/m -2,4 C -2,4 C 19,8 km/h (3 Bft) 0,00 %
01.04.2015 22:00 0,7 C 82 % 1018,5 hPa 0,0 l/m 10,4 km/h (2 Bft) N 353 0 min 0,000 mm 0,0 UV-I 0 W/m -2,0 C -3,0 C 11,9 km/h (2 Bft) 0,00 %
01.04.2015 22:15 0,7 C 81 % 1018,2 hPa 0,0 l/m 14,0 km/h (3 Bft) W-NW 284 0 min 0,000 mm 0,0 UV-I 0 W/m -2,2 C -5,5 C 19,8 km/h (3 Bft) 0,00 %
01.04.2015 22:30 1,0 C 80 % 1018,2 hPa 0,0 l/m 7,2 km/h (2 Bft) SW 222 0 min 0,000 mm 0,0 UV-I 0 W/m -2,1 C 0,2 C 11,9 km/h (2 Bft) 0,00 %
01.04.2015 22:45 1,3 C 77 % 1018,7 hPa 0,0 l/m 4,0 km/h (1 Bft) N-NW 332 0 min 0,000 mm 0,0 UV-I 0 W/m -2,3 C 1,3 C 4,0 km/h (1 Bft) 0,00 %
01.04.2015 23:00 1,3 C 77 % 1018,8 hPa 0,0 l/m 7,2 km/h (2 Bft) W 278 0 min 0,000 mm 0,0 UV-I 0 W/m -2,3 C 0,5 C 11,9 km/h (2 Bft) 0,00 %
01.04.2015 23:15 1,4 C 75 % 1018,6 hPa 0,0 l/m 7,9 km/h (2 Bft) W-SW 255 0 min 0,000 mm 0,0 UV-I 0 W/m -2,5 C -0,1 C 11,9 km/h (2 Bft) 0,00 %
01.04.2015 23:30 1,6 C 74 % 1018,2 hPa 0,3 l/m 15,5 km/h (3 Bft) N 357 0 min 0,000 mm 0,0 UV-I 0 W/m -2,5 C -5,3 C 24,1 km/h (4 Bft) 0,00 %
01.04.2015 23:45 1,1 C 79 % 1019,1 hPa 0,0 l/m 8,3 km/h (2 Bft) S 180 0 min 0,000 mm 0,0 UV-I 0 W/m -2,1 C -0,8 C 11,9 km/h (2 Bft) 0,00 %
_ Min-Zeit 21:45 18:00 01:30 - 07:30 - - - - - - 18:15 03:00 07:30 00:00
Minimum _ 0,5 C 44 % 1007,3 hPa - 0,0 km/h (0 Bft) - - - - - - -5,2 C -10,1 C 0,0 km/h (0 Bft) 0,00 %
_ Max-Zeit 17:30 14:30 23:45 04:30 03:00 - - 12:30 00:00 10:45 17:30 03:15 00:00 03:00 00:00
Maximum _ 6,6 C 85 % 1019,1 hPa 0,6 l/m 34,9 km/h
W-SW (5 Bft)
- - 15 min 0,000 mm 4,0 UV-I 610 W/m 0,8 C 6,1 C 44,3 km/h
W-SW (6 Bft)
0,00 %
Durchschnitt _ 2,9 C 72 % 1013,3 hPa #3,9 l/m 8,3 km/h (2 Bft) W-SW - #1:45 h #0,000 mm 1,7 UV-I 155 W/m -1,8 C 0,5 C 12,8 km/h (3 Bft) 0,00 %